createdAt,value
2023-03-29T00:01:52.651Z,51.56
2023-03-29T00:06:55.946Z,52.62
2023-03-29T00:12:01.592Z,54.30
2023-03-29T00:17:04.746Z,56.10
2023-03-29T00:22:08.228Z,57.60
2023-03-29T00:27:11.339Z,58.36
2023-03-29T00:32:15.770Z,59.02
2023-03-29T00:37:19.694Z,59.85
2023-03-29T00:42:24.538Z,60.46
2023-03-29T00:47:30.525Z,61.11
2023-03-29T00:52:35.983Z,62.04
2023-03-29T00:57:43.584Z,70.53
2023-03-29T01:02:54.622Z,76.05
2023-03-29T01:08:09.256Z,67.71
2023-03-29T01:13:22.562Z,59.99
2023-03-29T01:18:25.715Z,50.83
2023-03-29T01:24:07.384Z,50.97
2023-03-29T01:29:29.033Z,51.82
2023-03-29T01:34:43.126Z,53.10
2023-03-29T01:39:46.860Z,54.54
2023-03-29T01:45:11.780Z,56.39
2023-03-29T01:50:41.127Z,57.08
2023-03-29T01:55:51.993Z,58.15
2023-03-29T02:00:55.784Z,59.06
2023-03-29T02:06:01.645Z,60.10
2023-03-29T02:11:05.714Z,61.04
2023-03-29T02:16:15.066Z,67.60
2023-03-29T02:21:32.827Z,76.56
2023-03-29T02:26:36.432Z,70.67
2023-03-29T02:32:12.601Z,63.41
2023-03-29T02:37:20.114Z,53.91
2023-03-29T02:42:25.687Z,51.60
2023-03-29T02:47:41.562Z,52.39
2023-03-29T02:52:55.161Z,54.05
2023-03-29T02:57:58.656Z,54.80
2023-03-29T03:03:03.515Z,56.01
2023-03-29T03:08:07.627Z,57.29
2023-03-29T03:13:10.631Z,58.56
2023-03-29T03:18:14.361Z,59.49
2023-03-29T03:23:18.067Z,60.58
2023-03-29T03:28:24.410Z,61.51
2023-03-29T03:33:28.386Z,70.18
2023-03-29T03:38:33.556Z,76.31
2023-03-29T03:43:36.852Z,68.90
2023-03-29T03:48:39.945Z,62.67
2023-03-29T03:53:43.154Z,55.04
2023-03-29T03:58:46.578Z,52.93
2023-03-29T04:03:49.970Z,53.70
2023-03-29T04:08:53.819Z,54.65
2023-03-29T04:13:58.033Z,56.37
2023-03-29T04:19:01.588Z,57.95
2023-03-29T04:24:05.951Z,58.48
2023-03-29T04:29:09.345Z,59.91
2023-03-29T04:34:12.717Z,61.16
2023-03-29T04:39:18.294Z,66.91
2023-03-29T04:44:21.607Z,77.37
2023-03-29T04:49:26.073Z,75.04
2023-03-29T04:54:29.454Z,68.59
2023-03-29T04:59:32.659Z,63.17
2023-03-29T05:04:36.854Z,55.79
2023-03-29T05:09:41.948Z,54.63
2023-03-29T05:14:45.057Z,56.57
2023-03-29T05:19:48.599Z,57.41
2023-03-29T05:24:53.121Z,58.86
2023-03-29T05:29:56.339Z,69.39
2023-03-29T05:34:59.422Z,73.04
2023-03-29T05:40:08.687Z,65.62
2023-03-29T05:45:12.326Z,56.93
2023-03-29T05:50:15.595Z,57.87
2023-03-29T05:55:18.706Z,64.88
2023-03-29T06:00:24.428Z,62.40
2023-03-29T06:05:27.785Z,61.78
2023-03-29T06:10:31.296Z,56.77
2023-03-29T06:15:35.741Z,53.20
2023-03-29T06:20:38.948Z,56.93
2023-03-29T06:25:44.928Z,64.30
2023-03-29T06:30:49.456Z,65.12
2023-03-29T06:35:53.029Z,59.48
2023-03-29T06:41:06.088Z,54.40
2023-03-29T06:46:12.333Z,55.03
2023-03-29T06:51:15.710Z,55.60
2023-03-29T06:56:18.837Z,59.50
2023-03-29T07:01:22.065Z,67.75
2023-03-29T07:06:26.666Z,65.02
2023-03-29T07:11:31.824Z,56.48
2023-03-29T07:16:37.819Z,57.98
2023-03-29T07:21:41.824Z,60.81
2023-03-29T07:27:00.292Z,66.33
2023-03-29T07:32:07.520Z,60.71
2023-03-29T07:37:10.796Z,53.54
2023-03-29T07:42:14.010Z,52.85
2023-03-29T07:47:17.211Z,56.59
2023-03-29T07:52:20.236Z,61.79
2023-03-29T07:57:25.336Z,66.79
2023-03-29T08:02:29.360Z,63.15
2023-03-29T08:07:33.221Z,54.75
2023-03-29T08:12:37.829Z,51.10
2023-03-29T08:17:42.171Z,52.51
2023-03-29T08:22:45.517Z,53.65
2023-03-29T08:27:48.663Z,55.32
2023-03-29T08:32:55.160Z,57.98
2023-03-29T08:37:58.765Z,58.41
2023-03-29T08:43:26.823Z,59.30
2023-03-29T08:48:42.538Z,60.78
2023-03-29T08:54:17.577Z,59.15
2023-03-29T08:59:30.753Z,58.82
2023-03-29T09:04:36.772Z,58.40
2023-03-29T09:09:39.901Z,57.31
2023-03-29T09:15:00.362Z,56.20
2023-03-29T09:20:18.882Z,56.28
2023-03-29T09:25:27.583Z,55.30
2023-03-29T09:30:43.347Z,55.06
2023-03-29T09:36:12.624Z,54.47
2023-03-29T09:41:41.493Z,52.96
2023-03-29T09:47:10.772Z,53.17
2023-03-29T09:52:17.431Z,52.09
2023-03-29T09:57:21.071Z,51.95
2023-03-29T10:02:24.225Z,51.62
2023-03-29T10:07:44.819Z,50.98
2023-03-29T10:12:59.373Z,49.82
2023-03-29T10:18:11.015Z,49.91
2023-03-29T10:23:18.949Z,50.41
2023-03-29T10:28:23.029Z,49.03
2023-03-29T10:33:32.774Z,46.55
2023-03-29T10:38:38.269Z,45.29
2023-03-29T10:43:49.639Z,45.41
2023-03-29T10:48:57.889Z,45.70
2023-03-29T10:54:03.065Z,44.77
2023-03-29T10:59:25.096Z,44.70
2023-03-29T11:04:47.956Z,44.57
2023-03-29T11:10:34.904Z,41.57
2023-03-29T11:16:20.024Z,43.99
2023-03-29T11:21:35.161Z,42.83
2023-03-29T11:27:03.116Z,41.99
2023-03-29T11:32:13.389Z,43.34
2023-03-29T11:37:35.198Z,43.68
2023-03-29T11:42:46.096Z,41.71
2023-03-29T11:47:53.597Z,41.21
2023-03-29T11:53:08.475Z,41.13
2023-03-29T11:58:40.450Z,39.54
2023-03-29T12:03:59.178Z,36.30
2023-03-29T12:09:13.197Z,36.60
2023-03-29T12:14:42.703Z,35.81
2023-03-29T12:20:13.554Z,35.98
2023-03-29T12:25:25.237Z,34.88
2023-03-29T12:30:52.024Z,36.29
2023-03-29T12:36:32.210Z,38.42
2023-03-29T12:41:38.567Z,37.15
2023-03-29T12:46:41.911Z,37.33
2023-03-29T12:51:45.635Z,37.02
2023-03-29T12:56:52.286Z,37.46
2023-03-29T13:02:20.426Z,37.47
2023-03-29T13:07:23.638Z,36.77
2023-03-29T13:12:42.181Z,37.64
2023-03-29T13:18:20.037Z,37.46
2023-03-29T13:23:52.389Z,35.32
2023-03-29T13:29:51.828Z,35.15
2023-03-29T13:35:07.275Z,33.57
2023-03-29T13:40:44.854Z,34.23
2023-03-29T13:45:57.253Z,35.85
2023-03-29T13:51:08.563Z,36.45
2023-03-29T13:56:22.192Z,35.95
2023-03-29T14:01:40.119Z,35.88
2023-03-29T14:06:53.005Z,36.49
2023-03-29T14:12:00.630Z,37.19
2023-03-29T14:17:06.175Z,36.57
2023-03-29T14:22:17.042Z,37.25
2023-03-29T14:27:22.303Z,38.05
2023-03-29T14:32:31.617Z,37.89
2023-03-29T14:37:34.880Z,36.71
2023-03-29T14:42:38.604Z,37.49
2023-03-29T14:47:44.807Z,38.31
2023-03-29T14:52:52.397Z,37.70
2023-03-29T14:57:56.484Z,37.61
2023-03-29T15:03:03.092Z,37.61
2023-03-29T15:08:13.475Z,38.03
2023-03-29T15:13:24.681Z,39.19
2023-03-29T15:18:35.199Z,38.57
2023-03-29T15:23:55.134Z,39.75
2023-03-29T15:29:08.213Z,40.72
2023-03-29T15:34:14.681Z,41.58
2023-03-29T15:39:20.272Z,40.91
2023-03-29T15:44:29.495Z,41.62
2023-03-29T15:49:32.523Z,41.46
2023-03-29T15:54:37.448Z,42.39
2023-03-29T15:59:41.970Z,41.87
2023-03-29T16:04:45.113Z,42.33
2023-03-29T16:09:48.313Z,42.57
2023-03-29T16:14:51.612Z,43.33
2023-03-29T16:19:54.728Z,43.75
2023-03-29T16:24:57.955Z,43.49
2023-03-29T16:30:01.459Z,43.79
2023-03-29T16:35:27.169Z,43.39
2023-03-29T16:40:30.596Z,44.78
2023-03-29T16:45:33.910Z,45.00
2023-03-29T16:50:37.580Z,45.60
2023-03-29T16:55:41.148Z,45.42
2023-03-29T17:00:47.980Z,45.39
2023-03-29T17:05:54.014Z,45.69
2023-03-29T17:10:57.642Z,45.84
2023-03-29T17:16:01.540Z,45.82
2023-03-29T17:21:07.289Z,46.42
2023-03-29T17:26:12.174Z,46.68
2023-03-29T17:31:16.378Z,46.88
2023-03-29T17:36:24.243Z,47.15
2023-03-29T17:41:30.402Z,47.16
2023-03-29T17:46:34.495Z,47.52
2023-03-29T17:51:37.732Z,47.93
2023-03-29T17:56:41.174Z,48.84
2023-03-29T18:01:44.310Z,48.81
2023-03-29T18:06:49.413Z,48.82
2023-03-29T18:11:52.637Z,49.14
2023-03-29T18:16:57.241Z,49.06
2023-03-29T18:22:01.085Z,49.45
2023-03-29T18:27:04.500Z,49.70
2023-03-29T18:32:08.061Z,49.89
2023-03-29T18:37:15.162Z,50.01
2023-03-29T18:42:20.598Z,50.36
2023-03-29T18:47:23.629Z,50.81
2023-03-29T18:52:27.926Z,50.82
2023-03-29T18:57:31.058Z,51.12
2023-03-29T19:02:34.319Z,51.11
2023-03-29T19:07:38.069Z,51.15
2023-03-29T19:12:41.598Z,51.28
2023-03-29T19:17:45.246Z,51.55
2023-03-29T19:22:48.433Z,51.56
2023-03-29T19:27:51.515Z,51.61
2023-03-29T19:32:54.670Z,51.91
2023-03-29T19:37:58.145Z,52.32
2023-03-29T19:43:01.349Z,52.17
2023-03-29T19:48:04.722Z,52.19
2023-03-29T19:53:09.050Z,52.41
2023-03-29T19:58:12.514Z,52.68
2023-03-29T20:03:16.017Z,52.59
2023-03-29T20:08:19.248Z,52.66
2023-03-29T20:13:35.344Z,52.65
2023-03-29T20:18:40.902Z,52.60
2023-03-29T20:23:44.452Z,52.85
2023-03-29T20:28:47.767Z,53.42
2023-03-29T20:33:50.831Z,53.48
2023-03-29T20:38:56.501Z,53.93
2023-03-29T20:44:00.484Z,54.37
2023-03-29T20:49:09.039Z,54.62
2023-03-29T20:54:14.353Z,54.77
2023-03-29T20:59:18.038Z,55.17
2023-03-29T21:04:21.143Z,55.47
2023-03-29T21:09:25.709Z,55.95
2023-03-29T21:14:30.438Z,56.00
2023-03-29T21:19:33.426Z,56.06
2023-03-29T21:24:36.779Z,56.09
2023-03-29T21:29:39.960Z,56.12
2023-03-29T21:34:43.060Z,56.19
2023-03-29T21:39:46.159Z,56.61
2023-03-29T21:44:49.165Z,57.08
2023-03-29T21:49:52.268Z,57.31
2023-03-29T21:54:55.272Z,57.33
2023-03-29T21:59:58.426Z,57.72
2023-03-29T22:05:01.389Z,57.56
2023-03-29T22:10:12.020Z,57.70
2023-03-29T22:15:16.002Z,57.79
2023-03-29T22:20:20.248Z,57.93
2023-03-29T22:25:24.512Z,57.78
2023-03-29T22:30:27.682Z,57.91
2023-03-29T22:35:30.737Z,57.69
2023-03-29T22:40:33.877Z,57.76
2023-03-29T22:45:37.014Z,57.92
2023-03-29T22:50:43.173Z,57.71
2023-03-29T22:55:46.494Z,57.94
2023-03-29T23:00:51.807Z,57.71
2023-03-29T23:05:58.336Z,57.53
2023-03-29T23:11:03.169Z,57.29
2023-03-29T23:16:07.577Z,57.02
2023-03-29T23:21:10.927Z,56.90
2023-03-29T23:26:14.360Z,56.90
2023-03-29T23:31:20.533Z,56.78
2023-03-29T23:36:25.780Z,56.88
2023-03-29T23:41:30.928Z,57.10
2023-03-29T23:46:34.582Z,57.07
2023-03-29T23:51:39.329Z,57.15
2023-03-29T23:56:42.438Z,57.22
